Canaleja, Mexico

12:12 PM CDT on August 19, 2017 (GMT -0500)
Centro San Cristobal Texcalucan | | Change Station

Elev 8727 ft 19.40 °N, 99.33 °W | Updated 29 seconds ago

Partly Cloudy
Partly Cloudy
68.1 °F
Feels Like 68.1 °F
N
3.0
Wind Variable Wind from NNE

Today
High -- | Low -- °F
--% Chance of Precip.
Yesterday
High -- | Low -- °F
Precip. -- in
Pressure 30.37 in
Visibility 8.0 miles
Clouds Scattered Clouds 2500 ft
Dew Point 54 °F
Humidity 61%
Rainfall 0.00 in
Snow Depth Not available.
7:20 AM 8:03 PM
Waning Crescent, 6% visible
METAR MMMX 191647Z 05003KT 8SM SCT025 19/11 A3037 NOSIG RMK 8/100 HZY MDT CU E AC/CI
Pressure 30.37 in
Visibility 8.0 miles
Clouds Scattered Clouds 2500 ft
Dew Point 54 °F
Humidity 61%
Rainfall 0.00 in
Snow Depth Not available.
7:20 AM 8:03 PM
Waning Crescent, 6% visible
METAR MMMX 191647Z 05003KT 8SM SCT025 19/11 A3037 NOSIG RMK 8/100 HZY MDT CU E AC/CI

Get Severe Weather Alerts

Thanks for signing up!

Be on the lookout for a verification email in your inbox.

You'll start receiving the daily forecast at 6 AM.

×

10-Day Weather Forecast

No radar image for this location.
×

Almanac

Astronomy

Aug. 19, 2017 Rise Set
Actual Time
Civil Twilight
Nautical Twilight
Astronomical Twilight
Moon
Length of Visible Light
Length of Day
Tomorrow will be .
, % of the Moon is Illuminated

Today's Extremes

Country Highs Country Lows

Community

WunderPhotos

Category 6

Welcome to Category 6. This is the collective home for Weather Underground's featured writeups by Dr. Jeff Masters (right), Bob Henson (left), Chris Burt, and other regular contributors.

Nearby

Air Quality

  Air Quality AQ Index Pollutant
Not available.

Snow Depth

Station Depth Elevation

Earthquake Activity

City Distance Mag. Time & Date
Minimum magnitude displayed is 2.5.

Coastal Water Temperatures

Place Temperature

Stations

Nearby Weather Stations

Station Location Temp. Windchill Dew Point Humidity Wind Precip. Elev Updated Type